Terminal Aerodrome Forecast
Issued by NWS Missoula, MT

Home | Current Version | Previous Version | Text Only | Print | Product List | Glossary On
Versions: 1 2 3 4 5 6 7 8 9 10 11 12 13 14 15 16 17
991
FTUS45 KMSO 290520
TAFMSO
TAF
KMSO 290520Z 2906/3006 34006KT P6SM VCSH BKN060
     FM291600 VRB05KT P6SM SCT080
     FM292200 30010KT P6SM SCT100=

USA.gov is the U.S. government's official web portal to all federal, state and local government web resources and services.